createdAt,value
2022-12-20T00:01:05.930Z,36.80
2022-12-20T00:02:11.553Z,39.00
2022-12-20T00:04:24.274Z,34.20
2022-12-20T00:07:25.701Z,34.50
2022-12-20T00:08:32.844Z,37.87
2022-12-20T00:09:36.879Z,38.63
2022-12-20T00:10:46.625Z,38.50
2022-12-20T00:11:50.580Z,37.63
2022-12-20T00:12:56.481Z,34.06
2022-12-20T00:14:03.388Z,36.33
2022-12-20T00:15:11.331Z,36.25
2022-12-20T00:16:20.080Z,37.25
2022-12-20T00:19:48.156Z,34.47
2022-12-20T00:20:07.192Z,35.69
2022-12-20T00:21:13.203Z,34.80
2022-12-20T00:22:51.432Z,33.40
2022-12-20T00:23:27.761Z,35.60
2022-12-20T00:24:31.838Z,34.75
2022-12-20T00:25:35.865Z,33.33
2022-12-20T00:26:39.998Z,34.13
2022-12-20T00:27:43.985Z,32.19
2022-12-20T00:28:49.506Z,34.93
2022-12-20T00:29:53.405Z,30.81
2022-12-20T00:30:57.576Z,34.25
2022-12-20T00:32:03.368Z,36.94
2022-12-20T00:33:08.925Z,34.27
2022-12-20T00:34:14.147Z,34.50
2022-12-20T00:35:18.372Z,29.33
2022-12-20T00:36:24.585Z,33.81
2022-12-20T00:37:31.037Z,33.67
2022-12-20T00:38:37.157Z,31.00
2022-12-20T00:39:42.655Z,28.87
2022-12-20T00:40:51.304Z,34.06
2022-12-20T00:41:53.926Z,34.27
2022-12-20T00:42:57.873Z,34.67
2022-12-20T00:44:02.329Z,36.31
2022-12-20T00:45:09.045Z,36.93
2022-12-20T00:46:25.711Z,35.67
2022-12-20T01:13:03.445Z,31.94
2022-12-20T01:14:11.691Z,34.06
2022-12-20T01:15:57.893Z,33.67
2022-12-20T01:16:48.098Z,34.44
2022-12-20T01:33:55.081Z,31.44
2022-12-20T01:34:59.084Z,34.00
2022-12-20T01:36:06.362Z,34.67
2022-12-20T01:37:10.374Z,31.94
2022-12-20T01:38:17.291Z,31.53
2022-12-20T01:39:22.821Z,30.40
2022-12-20T01:40:28.417Z,35.81
2022-12-20T01:41:34.680Z,36.50
2022-12-20T01:46:53.789Z,30.62
2022-12-20T01:48:00.688Z,34.75
2022-12-20T01:49:22.151Z,33.31
2022-12-20T03:32:55.113Z,21.94
2022-12-20T03:34:02.095Z,20.12
2022-12-20T03:35:06.504Z,22.62
2022-12-20T03:36:12.065Z,22.94
2022-12-20T03:37:18.520Z,21.56
2022-12-20T03:38:22.362Z,23.06
2022-12-20T03:39:26.304Z,17.00
2022-12-20T03:40:30.227Z,21.62
2022-12-20T03:41:37.577Z,21.50
2022-12-20T03:42:41.871Z,15.63
2022-12-20T03:43:47.838Z,19.94
2022-12-20T03:44:57.501Z,21.69
2022-12-20T03:46:01.541Z,21.20
2022-12-20T03:47:05.471Z,22.94
2022-12-20T03:48:09.389Z,20.50
2022-12-20T03:49:13.301Z,25.12
2022-12-20T03:50:17.507Z,21.31
2022-12-20T03:51:23.869Z,24.94
2022-12-20T03:52:27.775Z,23.94
2022-12-20T03:53:40.672Z,23.38
2022-12-20T03:54:46.027Z,23.75
2022-12-20T03:55:56.838Z,24.75
2022-12-20T03:56:55.663Z,25.06
2022-12-20T03:57:59.589Z,23.94
2022-12-20T03:59:05.207Z,21.87
2022-12-20T04:00:20.950Z,23.31
2022-12-20T04:01:28.708Z,23.80
2022-12-20T04:02:34.572Z,24.19
2022-12-20T04:03:51.222Z,23.56
2022-12-20T04:04:51.711Z,22.50
2022-12-20T04:05:55.642Z,21.25
2022-12-20T04:07:01.209Z,24.75
2022-12-20T04:08:08.927Z,20.19
2022-12-20T04:09:12.853Z,16.87
2022-12-20T04:10:16.993Z,21.37
2022-12-20T04:11:21.180Z,23.44
2022-12-20T04:12:26.496Z,22.31
2022-12-20T04:13:30.458Z,14.81
2022-12-20T04:14:34.433Z,22.50
2022-12-20T04:15:38.474Z,21.44
2022-12-20T04:16:42.559Z,20.47
2022-12-20T04:17:46.698Z,25.31
2022-12-20T04:18:52.612Z,19.00
2022-12-20T04:19:56.615Z,21.06
2022-12-20T04:21:06.141Z,18.87
2022-12-20T04:22:10.159Z,21.19
2022-12-20T04:23:14.078Z,23.31
2022-12-20T04:24:18.187Z,19.31
2022-12-20T04:25:22.294Z,20.88
2022-12-20T04:26:26.845Z,18.00
2022-12-20T04:27:32.453Z,21.19
2022-12-20T04:28:39.038Z,20.25
2022-12-20T04:29:42.929Z,19.40
2022-12-20T04:30:46.880Z,15.06
2022-12-20T04:31:50.898Z,20.44
2022-12-20T04:32:54.917Z,21.94
2022-12-20T04:33:58.981Z,18.31
2022-12-20T04:35:06.507Z,19.12
2022-12-20T04:36:10.740Z,19.37
2022-12-20T04:37:14.766Z,20.62
2022-12-20T04:38:21.514Z,18.00
2022-12-20T04:39:28.124Z,20.37
2022-12-20T04:40:33.694Z,21.94
2022-12-20T04:41:40.066Z,20.50
2022-12-20T04:42:44.052Z,23.44
2022-12-20T04:43:52.162Z,20.44
2022-12-20T04:44:56.234Z,20.37
2022-12-20T04:46:03.873Z,24.00
2022-12-20T04:47:09.148Z,21.87
2022-12-20T04:48:45.962Z,21.44
2022-12-20T04:52:17.731Z,22.25
2022-12-20T04:53:21.891Z,19.81
2022-12-20T04:54:30.019Z,22.44
2022-12-20T04:55:39.500Z,18.62
2022-12-20T04:56:45.074Z,20.50
2022-12-20T04:57:48.981Z,20.56
2022-12-20T04:58:54.773Z,21.81
2022-12-20T04:59:58.811Z,21.62
2022-12-20T05:01:02.831Z,22.50
2022-12-20T05:02:07.113Z,21.44
2022-12-20T05:03:11.338Z,17.44
2022-12-20T05:04:15.489Z,18.00
2022-12-20T05:05:19.500Z,17.56
2022-12-20T05:06:27.278Z,17.50
2022-12-20T05:07:31.280Z,18.44
2022-12-20T05:08:35.405Z,18.00
2022-12-20T05:09:41.012Z,17.94
2022-12-20T05:10:47.418Z,18.50
2022-12-20T05:11:51.535Z,19.31
2022-12-20T05:12:55.595Z,22.31
2022-12-20T05:13:59.538Z,21.06
2022-12-20T05:15:03.738Z,21.40
2022-12-20T05:16:09.540Z,22.87
2022-12-20T05:17:13.590Z,21.81
2022-12-20T05:18:26.277Z,23.12
2022-12-20T05:50:19.619Z,19.62
2022-12-20T05:51:26.516Z,20.62
2022-12-20T05:52:29.253Z,19.37
2022-12-20T05:53:37.836Z,11.56
2022-12-20T05:54:44.536Z,15.50
2022-12-20T05:55:52.328Z,17.19
2022-12-20T05:56:56.396Z,15.13
2022-12-20T05:58:01.999Z,12.37
2022-12-20T05:59:07.571Z,18.06
2022-12-20T06:00:14.064Z,17.69
2022-12-20T06:01:23.638Z,17.44
2022-12-20T06:03:42.594Z,15.25
2022-12-20T06:04:49.549Z,13.62
2022-12-20T06:05:50.922Z,16.69
2022-12-20T06:05:58.026Z,13.56
2022-12-20T06:07:08.193Z,17.56
2022-12-20T06:08:17.343Z,18.93
2022-12-20T06:09:24.557Z,13.13
2022-12-20T06:10:25.284Z,15.38
2022-12-20T06:11:30.970Z,15.88
2022-12-20T06:12:36.169Z,16.56
2022-12-20T06:13:40.187Z,18.19
2022-12-20T06:14:44.329Z,15.13
2022-12-20T06:15:54.924Z,14.06
2022-12-20T06:17:00.627Z,15.63
2022-12-20T06:18:08.706Z,14.25
2022-12-20T06:20:23.001Z,18.56
2022-12-20T06:20:53.255Z,16.06
2022-12-20T06:21:29.407Z,17.44
2022-12-20T06:25:42.035Z,20.94
2022-12-20T06:29:35.813Z,17.75
2022-12-20T06:30:41.391Z,12.94
2022-12-20T06:31:45.665Z,15.75
2022-12-20T06:33:04.993Z,14.06
2022-12-20T06:34:15.553Z,15.75
2022-12-20T06:35:19.026Z,19.69
2022-12-20T06:36:25.957Z,18.13
2022-12-20T06:37:34.302Z,10.00
2022-12-20T07:38:38.362Z,11.00
2022-12-20T07:39:45.513Z,13.06
2022-12-20T07:40:50.995Z,12.69
2022-12-20T07:41:56.623Z,10.56
2022-12-20T07:43:00.844Z,12.37
2022-12-20T07:46:31.301Z,6.69
2022-12-20T07:46:51.072Z,13.31
2022-12-20T07:48:24.846Z,9.38
2022-12-20T07:49:10.173Z,13.62
2022-12-20T07:51:15.858Z,9.75
2022-12-20T07:52:54.782Z,10.56
2022-12-20T08:37:49.358Z,14.63
2022-12-20T08:42:47.533Z,14.75
2022-12-20T08:43:51.519Z,15.75
2022-12-20T08:44:58.595Z,12.37
2022-12-20T08:51:01.893Z,14.69
2022-12-20T08:52:05.983Z,12.56
2022-12-20T08:53:11.302Z,13.88
2022-12-20T08:54:15.383Z,14.56
2022-12-20T08:55:29.519Z,13.44
2022-12-20T08:56:47.915Z,13.44
2022-12-20T08:59:35.104Z,13.62
2022-12-20T09:57:48.239Z,13.13
2022-12-20T09:59:17.136Z,14.20
2022-12-20T10:18:09.973Z,12.19
2022-12-20T10:18:47.071Z,11.69
2022-12-20T10:20:00.937Z,10.75
2022-12-20T10:21:36.113Z,11.06
2022-12-20T10:22:34.138Z,11.06
2022-12-20T10:37:27.156Z,11.81
2022-12-20T10:39:39.482Z,8.63
2022-12-20T10:42:49.042Z,13.88
2022-12-20T10:46:11.551Z,12.19
2022-12-20T10:47:25.921Z,11.81
2022-12-20T10:48:38.060Z,11.56
2022-12-20T11:31:30.890Z,16.56
2022-12-20T11:43:29.683Z,12.56
2022-12-20T12:13:48.611Z,21.37
2022-12-20T12:15:25.499Z,17.56
2022-12-20T12:16:41.368Z,15.38
2022-12-20T12:17:50.779Z,14.75
2022-12-20T12:18:55.013Z,14.87
2022-12-20T12:20:04.431Z,11.56
2022-12-20T12:21:23.351Z,13.75
2022-12-20T12:22:31.903Z,14.19
2022-12-20T12:23:58.275Z,13.81
2022-12-20T12:25:08.930Z,14.94
2022-12-20T12:26:30.707Z,13.25
2022-12-20T12:27:37.602Z,13.13
2022-12-20T12:28:43.208Z,15.93
2022-12-20T12:29:47.327Z,13.62
2022-12-20T12:31:07.664Z,9.25
2022-12-20T12:32:21.945Z,15.50
2022-12-20T12:33:38.594Z,14.63
2022-12-20T12:35:09.179Z,14.25
2022-12-20T12:36:17.776Z,15.38
2022-12-20T12:37:33.494Z,18.00
2022-12-20T12:38:48.094Z,12.44
2022-12-20T12:39:59.292Z,13.44
2022-12-20T12:41:44.691Z,15.50
2022-12-20T12:42:44.853Z,17.37
2022-12-20T12:43:59.441Z,12.81
2022-12-20T12:45:12.234Z,14.81
2022-12-20T13:08:54.298Z,11.81
2022-12-20T13:10:05.443Z,12.81
2022-12-20T13:22:45.727Z,15.25
2022-12-20T13:24:01.370Z,16.12
2022-12-20T13:31:29.660Z,16.12
2022-12-20T14:11:01.475Z,17.31
2022-12-20T14:12:25.506Z,16.75
2022-12-20T14:13:26.765Z,17.12
2022-12-20T14:14:32.198Z,17.25
2022-12-20T14:15:38.504Z,13.81
2022-12-20T14:16:43.880Z,15.63
2022-12-20T14:46:25.585Z,15.94
2022-12-20T14:47:29.370Z,17.00
2022-12-20T15:54:43.017Z,19.06
2022-12-20T15:55:45.499Z,19.94
2022-12-20T16:09:37.078Z,15.44
2022-12-20T16:11:34.259Z,21.25
2022-12-20T16:14:00.409Z,20.56
2022-12-20T16:41:38.772Z,20.00
2022-12-20T18:02:15.116Z,26.31
2022-12-20T18:04:02.311Z,23.69
2022-12-20T18:37:05.104Z,25.81
2022-12-20T19:08:13.713Z,30.75
2022-12-20T19:19:39.557Z,28.94
2022-12-20T19:25:07.246Z,29.33
2022-12-20T19:32:02.561Z,26.25
2022-12-20T23:22:26.613Z,21.31
2022-12-20T23:26:24.111Z,26.87
2022-12-20T23:27:28.056Z,23.19
2022-12-20T23:28:35.163Z,20.37
2022-12-20T23:29:41.500Z,23.50
2022-12-20T23:30:54.434Z,24.63
2022-12-20T23:32:04.104Z,25.37
2022-12-20T23:36:01.193Z,28.50
2022-12-20T23:37:08.358Z,26.94
2022-12-20T23:38:12.409Z,26.94
2022-12-20T23:39:16.418Z,25.12
2022-12-20T23:40:22.421Z,27.19
2022-12-20T23:41:27.572Z,24.19
2022-12-20T23:42:31.638Z,17.69
2022-12-20T23:43:37.850Z,19.56
2022-12-20T23:44:46.631Z,25.94
2022-12-20T23:46:03.299Z,26.75
2022-12-20T23:47:24.282Z,25.19
2022-12-20T23:48:07.149Z,25.06
2022-12-20T23:49:11.236Z,27.44
2022-12-20T23:50:16.869Z,21.44
2022-12-20T23:51:22.455Z,26.44
2022-12-20T23:52:29.373Z,22.56
2022-12-20T23:53:35.851Z,24.00
2022-12-20T23:54:39.584Z,27.31
2022-12-20T23:55:44.902Z,25.81
2022-12-20T23:56:54.107Z,26.87
2022-12-20T23:57:58.126Z,24.07
2022-12-20T23:59:02.385Z,26.37
